Agia Eleousa — SX3933 — position and weather

sailwx.info

Track history (hours):
 
Tides and Currents Weather Stations Pressure Air Temp Water Temp Dewpoint Dewpoint Depression Visibility Wind Speed Wind Dir Waves Ship Positions

Agia Eleousa

Last reported at 2018-Jan-23 08:00 UTC. Time now 2018-Jan-23 08:21 UTC.
Position N 40°53' E 025°05'.

Length 19 m.

Type: Fishing. MMSI: 237063000.

Date/timePositionNaut miles runAvg speedWind from/ knotsBaromVisibWave heightAir tempDewpointWater temp
2018-Jan-23 08:00N 40°53' E 025°05'3 5.1
2018-Jan-23 07:29N 40°52' E 025°02'2 3.1
2018-Jan-23 06:59N 40°51' E 025°00'1 2.3
2018-Jan-23 06:29N 40°51' E 025°01'1 2.6
2018-Jan-23 05:59N 40°52' E 025°03'1 2.5
2018-Jan-23 05:30N 40°53' E 025°03'1 2.5
2018-Jan-23 05:00N 40°54' E 025°04'2 4.6
2018-Jan-23 04:30N 40°56' E 025°06'2 0.0
2018-Jan-21 07:57N 40°58' E 025°07'4 4.6
2018-Jan-21 07:11N 40°54' E 025°06'1 5.3
2018-Jan-21 06:59N 40°53' E 025°06'0 0.7
2018-Jan-21 06:29N 40°53' E 025°05'1 2.2
2018-Jan-21 06:00N 40°53' E 025°04'1 1.8
2018-Jan-21 05:26N 40°54' E 025°04'2 4.2
2018-Jan-21 04:59N 40°56' E 025°05'2 0.2
2018-Jan-20 17:23N 40°58' E 025°07'1 2.4
2018-Jan-20 16:49N 40°57' E 025°06'2 4.8
2018-Jan-20 16:23N 40°55' E 025°05'1 1.5
2018-Jan-20 16:00N 40°55' E 025°04'1 2.5
2018-Jan-20 15:30N 40°53' E 025°03'1 2.5
2018-Jan-20 15:00N 40°52' E 025°03'1 2.5
2018-Jan-20 14:30N 40°52' E 025°02'1 2.6
2018-Jan-20 13:58N 40°51' E 025°00'1 1.5
2018-Jan-20 13:15N 40°51' E 024°59'3 2.3
2018-Jan-20 12:02N 40°51' E 025°02'0 2.5
2018-Jan-20 12:00N 40°52' E 025°02'1 2.6
2018-Jan-20 11:29N 40°52' E 025°03'1 2.4
2018-Jan-20 10:58N 40°54' E 025°04'1 2.5
2018-Jan-20 10:30N 40°54' E 025°05'0 0.9
2018-Jan-20 10:01N 40°55' E 025°05'1 2.3
2018-Jan-20 09:29N 40°54' E 025°04'1 2.5
2018-Jan-20 09:00N 40°53' E 025°03'1 2.5
2018-Jan-20 08:29N 40°52' E 025°03'1 2.5
2018-Jan-20 08:00N 40°51' E 025°01'1 2.6
2018-Jan-20 07:30N 40°51' E 024°60'0 0.3
2018-Jan-20 07:01N 40°51' E 024°60'1 2.5
2018-Jan-20 06:30N 40°51' E 025°02'1 2.6
2018-Jan-20 06:00N 40°52' E 025°03'1 2.6
2018-Jan-20 05:30N 40°53' E 025°03'1 2.5
2018-Jan-20 05:00N 40°54' E 025°04'2 4.0
2018-Jan-20 04:30N 40°56' E 025°05'3 0.2
2018-Jan-19 17:31N 40°58' E 025°08'4 3.2
2018-Jan-19 16:23N 40°54' E 025°06'1 1.5
2018-Jan-19 15:50N 40°55' E 025°05'1 2.4
2018-Jan-19 15:31N 40°55' E 025°04'5 2.4
2018-Jan-19 13:35N 40°51' E 025°02'1 2.3
2018-Jan-19 13:20N 40°50' E 025°02'5 1.0
2018-Jan-19 08:25N 40°55' E 025°05'1 1.5
2018-Jan-19 07:56N 40°55' E 025°04'3 2.5
2018-Jan-19 06:47N 40°53' E 025°01'1 2.5
2018-Jan-19 06:30N 40°53' E 025°00'1 2.0
2018-Jan-19 06:00N 40°53' E 025°01'2 2.4
2018-Jan-19 05:17N 40°54' E 025°03'1 2.6
2018-Jan-19 04:55N 40°55' E 025°04'2 4.4
2018-Jan-19 04:30N 40°56' E 025°06'  
Track history (hours):
 
Tides and Currents Weather Stations Pressure Air Temp Water Temp Dewpoint Dewpoint Depression Visibility Wind Speed Wind Dir Waves Ship Positions

Agia Eleousa

Last reported at 2018-Jan-23 08:00 UTC. Time now 2018-Jan-23 08:21 UTC.
Position N 40°53' E 025°05'.

Length 19 m.

Type: Fishing. MMSI: 237063000.

Date/timePositionNaut miles runAvg speedWind from/ knotsBaromVisibWave heightAir tempDewpointWater temp
2018-Jan-23 08:00N 40°53' E 025°05'3 5.1
2018-Jan-23 07:29N 40°52' E 025°02'2 3.1
2018-Jan-23 06:59N 40°51' E 025°00'1 2.3
2018-Jan-23 06:29N 40°51' E 025°01'1 2.6
2018-Jan-23 05:59N 40°52' E 025°03'1 2.5
2018-Jan-23 05:30N 40°53' E 025°03'1 2.5
2018-Jan-23 05:00N 40°54' E 025°04'2 4.6
2018-Jan-23 04:30N 40°56' E 025°06'2 0.0
2018-Jan-21 07:57N 40°58' E 025°07'4 4.6
2018-Jan-21 07:11N 40°54' E 025°06'1 5.3
2018-Jan-21 06:59N 40°53' E 025°06'0 0.7
2018-Jan-21 06:29N 40°53' E 025°05'1 2.2
2018-Jan-21 06:00N 40°53' E 025°04'1 1.8
2018-Jan-21 05:26N 40°54' E 025°04'2 4.2
2018-Jan-21 04:59N 40°56' E 025°05'2 0.2
2018-Jan-20 17:23N 40°58' E 025°07'1 2.4
2018-Jan-20 16:49N 40°57' E 025°06'2 4.8
2018-Jan-20 16:23N 40°55' E 025°05'1 1.5
2018-Jan-20 16:00N 40°55' E 025°04'1 2.5
2018-Jan-20 15:30N 40°53' E 025°03'1 2.5
2018-Jan-20 15:00N 40°52' E 025°03'1 2.5
2018-Jan-20 14:30N 40°52' E 025°02'1 2.6
2018-Jan-20 13:58N 40°51' E 025°00'1 1.5
2018-Jan-20 13:15N 40°51' E 024°59'3 2.3
2018-Jan-20 12:02N 40°51' E 025°02'0 2.5
2018-Jan-20 12:00N 40°52' E 025°02'1 2.6
2018-Jan-20 11:29N 40°52' E 025°03'1 2.4
2018-Jan-20 10:58N 40°54' E 025°04'1 2.5
2018-Jan-20 10:30N 40°54' E 025°05'0 0.9
2018-Jan-20 10:01N 40°55' E 025°05'1 2.3
2018-Jan-20 09:29N 40°54' E 025°04'1 2.5
2018-Jan-20 09:00N 40°53' E 025°03'1 2.5
2018-Jan-20 08:29N 40°52' E 025°03'1 2.5
2018-Jan-20 08:00N 40°51' E 025°01'1 2.6
2018-Jan-20 07:30N 40°51' E 024°60'0 0.3
2018-Jan-20 07:01N 40°51' E 024°60'1 2.5
2018-Jan-20 06:30N 40°51' E 025°02'1 2.6
2018-Jan-20 06:00N 40°52' E 025°03'1 2.6
2018-Jan-20 05:30N 40°53' E 025°03'1 2.5
2018-Jan-20 05:00N 40°54' E 025°04'2 4.0
2018-Jan-20 04:30N 40°56' E 025°05'3 0.2
2018-Jan-19 17:31N 40°58' E 025°08'4 3.2
2018-Jan-19 16:23N 40°54' E 025°06'1 1.5
2018-Jan-19 15:50N 40°55' E 025°05'1 2.4
2018-Jan-19 15:31N 40°55' E 025°04'5 2.4
2018-Jan-19 13:35N 40°51' E 025°02'1 2.3
2018-Jan-19 13:20N 40°50' E 025°02'5 1.0
2018-Jan-19 08:25N 40°55' E 025°05'1 1.5
2018-Jan-19 07:56N 40°55' E 025°04'3 2.5
2018-Jan-19 06:47N 40°53' E 025°01'1 2.5
2018-Jan-19 06:30N 40°53' E 025°00'1 2.0
2018-Jan-19 06:00N 40°53' E 025°01'2 2.4
2018-Jan-19 05:17N 40°54' E 025°03'1 2.6
2018-Jan-19 04:55N 40°55' E 025°04'2 4.4
2018-Jan-19 04:30N 40°56' E 025°06'  

Dump ship's entire track history